Time;durP1;ratioP1;P1;durP2;ratioP2;P2;SDS_P1;SDS_P2;PMS_P1;PMS_P2;Temp;Humidity;BMP_temperature;BMP_pressure;BME280_temperature;BME280_humidity;BME280_pressure;Samples;Min_cycle;Max_cycle;Signal;HPM_P1;HPM_P2
2021/09/19 00:02:19;;;;;;;1.98;1.88;;;;;;;29.13;56.10;100796.84;5055382;28;66099;-36
2021/09/19 00:04:51;;;;;;;2.35;2.15;;;;;;;29.18;55.76;100805.16;5061135;27;69273;-36
2021/09/19 00:07:32;;;;;;;5.60;2.35;;;;;;;29.16;56.76;100809.09;5084399;27;64703;-36
2021/09/19 00:10:44;;;;;;;3.47;2.05;;;;;;;29.16;56.29;100806.41;5052050;27;69172;-36
2021/09/19 00:13:21;;;;;;;4.47;2.03;;;;;;;29.19;57.18;100819.50;5065608;27;65682;-36
2021/09/19 00:15:58;;;;;;;2.42;2.20;;;;;;;29.21;57.11;100820.13;5067658;27;70855;-36
2021/09/19 00:18:31;;;;;;;6.35;2.28;;;;;;;29.13;58.28;100815.75;5065816;27;66265;-36
2021/09/19 00:21:34;;;;;;;6.30;2.90;;;;;;;29.12;60.38;100826.78;5075098;27;69360;-37
2021/09/19 00:24:07;;;;;;;4.28;3.65;;;;;;;29.19;61.10;100830.28;5079991;27;66588;-37
2021/09/19 00:26:48;;;;;;;3.67;3.38;;;;;;;29.23;60.99;100831.56;5071415;27;70553;-36
2021/09/19 00:29:22;;;;;;;3.30;3.10;;;;;;;29.23;62.08;100834.25;5066680;28;65551;-36
2021/09/19 00:32:06;;;;;;;5.30;3.60;;;;;;;29.15;63.57;100824.50;5057625;27;70016;-36
2021/09/19 00:34:37;;;;;;;3.47;3.28;;;;;;;29.23;63.67;100844.22;5074928;27;66075;-36
2021/09/19 00:37:09;;;;;;;13.68;3.60;;;;;;;29.17;63.28;100837.78;5071992;27;70094;-36
2021/09/19 00:39:41;;;;;;;3.90;3.22;;;;;;;29.22;63.47;100845.25;5084940;27;66488;-36
2021/09/19 00:42:12;;;;;;;5.50;2.80;;;;;;;29.32;63.90;100862.69;5090804;27;69320;-36
2021/09/19 00:44:44;;;;;;;8.53;3.43;;;;;;;29.33;64.57;100864.34;5086887;27;65049;-36
2021/09/19 00:47:15;;;;;;;3.22;3.03;;;;;;;29.32;64.83;100862.69;5082500;27;69514;-37
2021/09/19 00:49:47;;;;;;;4.57;3.47;;;;;;;29.33;65.09;100864.34;5067959;27;65152;-36
2021/09/19 00:55:13;;;;;;;4.50;3.42;;;;;;;29.42;65.00;100856.03;5056665;27;66382;-36
2021/09/19 00:57:51;;;;;;;3.30;3.10;;;;;;;29.36;64.95;100857.69;5088151;27;69527;-36
2021/09/19 01:00:28;;;;;;;4.93;3.10;;;;;;;29.44;64.50;100859.34;5084021;27;65777;-36
2021/09/19 01:03:00;;;;;;;4.70;3.60;;;;;;;29.41;65.11;100855.19;5083013;27;69696;-36
2021/09/19 01:05:33;;;;;;;5.47;3.63;;;;;;;29.24;65.05;100837.78;5089993;27;66183;-37
2021/09/19 01:08:05;;;;;;;3.95;3.67;;;;;;;29.43;64.90;100863.09;5086876;27;71010;-37
2021/09/19 01:10:36;;;;;;;4.40;4.00;;;;;;;29.42;65.27;100858.72;5083320;27;65443;-37
2021/09/19 01:13:09;;;;;;;6.03;4.55;;;;;;;29.40;65.40;100861.66;5077907;27;69972;-37
2021/09/19 01:15:41;;;;;;;4.13;3.83;;;;;;;29.48;65.55;100860.59;5086683;27;66629;-34
2021/09/19 01:18:17;;;;;;;4.57;4.18;;;;;;;29.53;65.11;100874.28;5085671;27;70209;-37
2021/09/19 01:20:49;;;;;;;5.05;4.68;;;;;;;29.50;65.33;100863.91;5072668;27;66330;-36
2021/09/19 01:23:20;;;;;;;4.80;4.40;;;;;;;29.48;64.84;100860.59;5073900;27;69602;-38
2021/09/19 01:25:52;;;;;;;4.78;4.40;;;;;;;29.40;65.59;100846.25;5084025;27;65534;-36
2021/09/19 01:28:24;;;;;;;6.53;5.15;;;;;;;29.52;66.12;100867.22;5068246;28;70237;-35
2021/09/19 01:30:55;;;;;;;5.82;4.68;;;;;;;29.47;66.04;100858.94;5082202;27;66858;-36
2021/09/19 01:33:27;;;;;;;4.80;4.50;;;;;;;29.56;65.62;100876.56;5063734;27;70045;-36
2021/09/19 01:36:00;;;;;;;4.95;4.55;;;;;;;29.62;66.04;100873.03;5045444;27;66907;-36
2021/09/19 01:38:31;;;;;;;13.95;4.93;;;;;;;29.57;65.49;100872.84;5081687;27;70946;-40
2021/09/19 01:41:03;;;;;;;11.60;4.90;;;;;;;29.62;66.04;100870.34;5055763;27;65853;-36
2021/09/19 01:43:35;;;;;;;8.10;4.93;;;;;;;29.65;66.24;100878.06;5080848;27;69483;-36
2021/09/19 01:46:06;;;;;;;5.07;4.65;;;;;;;29.66;66.52;100874.28;5082715;27;66672;-36
2021/09/19 01:48:39;;;;;;;6.10;5.60;;;;;;;29.30;66.23;100816.13;5064371;27;69250;-36
2021/09/19 01:51:12;;;;;;;9.45;5.03;;;;;;;29.72;66.13;100868.03;5081526;27;66641;-36
2021/09/19 01:54:05;;;;;;;5.15;4.85;;;;;;;29.45;66.48;100823.16;5067443;27;70112;-38
2021/09/19 01:56:38;;;;;;;6.30;5.50;;;;;;;29.73;66.07;100864.31;5047799;27;65684;-35
2021/09/19 01:59:10;;;;;;;7.93;5.28;;;;;;;29.76;66.61;100874.69;5062132;27;69124;-35
2021/09/19 02:01:42;;;;;;;5.35;4.85;;;;;;;29.82;66.52;100881.94;5074073;27;66452;-36
2021/09/19 02:04:14;;;;;;;6.00;4.80;;;;;;;29.74;66.23;100871.34;5055690;27;70267;-36
2021/09/19 02:06:46;;;;;;;6.20;5.18;;;;;;;29.87;66.44;100884.03;5069231;27;66097;-36
2021/09/19 02:09:18;;;;;;;9.30;8.70;;;;;;;29.74;66.09;100882.19;5061991;27;70337;-38
2021/09/19 02:11:49;;;;;;;17.38;9.20;;;;;;;29.74;65.88;100892.16;5070222;27;65726;-36
2021/09/19 02:14:39;;;;;;;10.13;8.88;;;;;;;29.70;67.04;100885.50;5057805;27;70378;-35
2021/09/19 02:17:12;;;;;;;10.70;9.75;;;;;;;29.73;66.51;100899.44;5055924;27;66360;-36
2021/09/19 02:19:49;;;;;;;10.77;9.98;;;;;;;29.74;67.07;100902.97;5064010;27;70556;-35
2021/09/19 02:22:35;;;;;;;11.43;10.60;;;;;;;29.66;66.85;100895.91;5080285;27;66016;-35
2021/09/19 02:25:09;;;;;;;12.98;11.73;;;;;;;29.70;66.88;100909.84;5063994;28;69898;-35
2021/09/19 02:27:43;;;;;;;13.55;11.98;;;;;;;29.74;67.68;100909.22;5044474;28;66649;-36
2021/09/19 02:30:17;;;;;;;10.27;9.60;;;;;;;29.79;67.61;100920.22;5042588;27;69649;-35
2021/09/19 02:32:49;;;;;;;11.75;10.68;;;;;;;29.74;66.56;100903.81;5054282;28;66241;-36
2021/09/19 02:35:21;;;;;;;12.63;11.73;;;;;;;29.80;67.17;100924.59;5063624;28;69427;-36
2021/09/19 02:37:52;;;;;;;11.57;10.80;;;;;;;29.75;66.51;100916.28;5059140;28;65320;-35
2021/09/19 02:40:25;;;;;;;12.75;11.57;;;;;;;29.83;67.03;100929.56;5054451;28;70887;-35
2021/09/19 02:42:57;;;;;;;11.05;10.30;;;;;;;29.83;67.07;100907.94;5057541;28;66278;-35
2021/09/19 02:45:29;;;;;;;10.30;9.38;;;;;;;29.99;66.94;100933.69;5047141;28;70064;-35
2021/09/19 02:48:00;;;;;;;9.50;8.80;;;;;;;30.02;66.54;100933.25;5058356;28;65899;-36
2021/09/19 02:50:33;;;;;;;9.30;8.70;;;;;;;29.95;66.97;100915.38;5060996;28;69171;-36
2021/09/19 02:53:04;;;;;;;9.32;8.18;;;;;;;30.06;66.67;100933.66;5059983;27;65608;-36
2021/09/19 02:55:36;;;;;;;11.25;8.27;;;;;;;30.06;66.48;100939.06;5060588;28;70151;-35
2021/09/19 02:58:08;;;;;;;8.63;7.93;;;;;;;30.13;67.12;100945.28;5056933;28;65341;-35
2021/09/19 03:00:39;;;;;;;8.15;7.55;;;;;;;30.12;66.84;100949.06;5042096;28;71042;-36
2021/09/19 03:03:11;;;;;;;7.85;7.45;;;;;;;30.21;66.62;100964.00;5065665;28;66754;-36
2021/09/19 03:05:44;;;;;;;8.20;7.57;;;;;;;30.30;66.74;100961.09;5067501;28;69245;-35
2021/09/19 03:08:15;;;;;;;8.68;7.55;;;;;;;30.08;66.33;100918.03;5062923;28;66685;-36
2021/09/19 03:10:47;;;;;;;8.23;7.70;;;;;;;30.28;66.75;100954.03;5072645;28;70605;-36
2021/09/19 03:13:19;;;;;;;7.93;7.30;;;;;;;30.40;66.13;100961.47;5063255;28;66257;-36
2021/09/19 03:15:51;;;;;;;7.60;7.10;;;;;;;30.09;66.50;100919.72;5047001;28;69163;-36
2021/09/19 03:18:23;;;;;;;8.25;7.55;;;;;;;30.34;66.10;100946.06;5040114;28;65364;-35
2021/09/19 03:20:55;;;;;;;7.95;7.55;;;;;;;30.45;66.53;100958.91;5056400;28;69889;-35
2021/09/19 03:23:27;;;;;;;7.72;7.07;;;;;;;30.45;66.46;100961.63;5058296;28;66296;-35
2021/09/19 03:25:58;;;;;;;7.32;6.95;;;;;;;30.40;65.95;100939.81;5057987;28;70845;-34
2021/09/19 03:28:30;;;;;;;;;;;;;;;30.42;66.77;100959.34;5056547;28;66987;-35
2021/09/19 03:31:01;;;;;;;8.77;8.15;;;;;;;30.50;65.72;100934.75;5059062;28;69288;-41
2021/09/19 03:33:33;;;;;;;8.48;7.85;;;;;;;30.60;65.47;100945.13;5046345;28;65410;-38
2021/09/19 03:36:05;;;;;;;8.70;8.30;;;;;;;30.59;66.08;100944.28;5042861;28;69211;-36
2021/09/19 03:38:36;;;;;;;8.32;7.93;;;;;;;30.63;65.79;100939.25;5059354;28;65406;-35
2021/09/19 03:41:08;;;;;;;;;;;;;;;30.65;65.90;100945.31;5030356;28;68810;-35
2021/09/19 03:43:39;;;;;;;8.73;7.97;;;;;;;30.73;65.78;100940.47;5047653;28;66810;-35
2021/09/19 03:46:11;;;;;;;8.98;8.48;;;;;;;30.70;65.66;100940.03;5043229;28;69992;-35
2021/09/19 03:48:43;;;;;;;8.57;7.97;;;;;;;30.76;64.97;100949.16;5029654;28;66436;-34
2021/09/19 03:51:14;;;;;;;8.80;8.15;;;;;;;30.76;65.18;100950.03;5047955;28;70217;-35
2021/09/19 03:53:48;;;;;;;8.93;7.93;;;;;;;30.78;65.29;100936.25;5050987;28;66114;-36
2021/09/19 03:56:20;;;;;;;9.18;8.35;;;;;;;30.73;65.33;100926.91;5042968;28;70431;-36
2021/09/19 03:58:53;;;;;;;8.40;7.70;;;;;;;30.88;65.07;100942.06;5044374;28;66049;-35
2021/09/19 04:01:24;;;;;;;8.27;7.82;;;;;;;30.84;65.16;100924.56;5026704;28;70341;-35
2021/09/19 04:03:57;;;;;;;8.73;8.10;;;;;;;30.89;65.18;100927.44;5050576;28;65205;-36
2021/09/19 04:06:30;;;;;;;8.52;7.70;;;;;;;30.93;64.76;100928.69;5034737;28;70182;-35
2021/09/19 04:09:02;;;;;;;8.18;7.60;;;;;;;30.96;65.31;100922.00;5040518;28;65406;-36
2021/09/19 04:11:34;;;;;;;8.82;8.10;;;;;;;30.95;65.21;100910.31;5037044;28;70136;-36
2021/09/19 04:14:05;;;;;;;8.05;7.28;;;;;;;31.01;65.23;100919.44;5042876;28;64676;-36
2021/09/19 04:16:37;;;;;;;7.95;7.35;;;;;;;30.99;65.15;100911.56;5037820;28;70513;-35
2021/09/19 04:19:09;;;;;;;8.70;7.80;;;;;;;30.93;65.38;100897.00;5056059;28;65879;-36
2021/09/19 04:21:41;;;;;;;8.27;7.78;;;;;;;31.03;64.57;100895.69;5046706;28;69787;-35
2021/09/19 04:24:13;;;;;;;9.73;7.80;;;;;;;31.06;64.96;100900.66;5034975;28;66526;-36
2021/09/19 04:26:45;;;;;;;9.45;7.97;;;;;;;31.05;64.76;100888.16;5038166;28;69140;-36
2021/09/19 04:29:17;;;;;;;7.95;7.28;;;;;;;31.08;64.95;100883.13;5036981;28;66283;-37
2021/09/19 04:31:53;;;;;;;11.77;7.60;;;;;;;31.09;65.11;100879.38;5043020;28;69398;-43
2021/09/19 04:34:26;;;;;;;7.30;6.90;;;;;;;31.12;64.71;100867.25;5020520;28;65546;-36
2021/09/19 04:36:59;;;;;;;8.25;7.75;;;;;;;31.15;64.54;100870.34;5037125;28;69184;-36
2021/09/19 04:39:32;;;;;;;8.70;7.75;;;;;;;31.11;65.03;100869.13;5051739;28;66030;-37
2021/09/19 04:42:04;;;;;;;8.40;7.80;;;;;;;31.13;64.34;100858.91;5034761;28;69562;-44
2021/09/19 04:44:36;;;;;;;;;;;;;;;31.06;64.99;100852.72;5039709;28;65899;-36
2021/09/19 04:47:07;;;;;;;7.75;7.30;;;;;;;31.20;64.39;100847.16;5033617;28;69737;-36
2021/09/19 04:49:39;;;;;;;;;;;;;;;31.15;64.48;100845.97;5039855;28;66177;-36
2021/09/19 04:52:12;;;;;;;7.88;7.25;;;;;;;31.23;64.09;100835.88;5034061;28;70318;-38
2021/09/19 04:54:44;;;;;;;7.38;6.97;;;;;;;31.24;64.48;100832.13;5037142;28;66633;-36
2021/09/19 04:57:17;;;;;;;8.52;7.72;;;;;;;31.23;64.17;100825.91;5041039;28;70324;-40
2021/09/19 04:59:48;;;;;;;7.05;6.55;;;;;;;31.23;64.51;100814.19;5040911;28;66306;-35
2021/09/19 05:02:20;;;;;;;12.77;7.82;;;;;;;31.23;64.73;100808.78;5019834;28;70763;-44
2021/09/19 05:04:52;;;;;;;9.73;7.32;;;;;;;31.04;64.54;100761.91;5048446;28;66078;-33
2021/09/19 05:07:24;;;;;;;7.55;7.03;;;;;;;31.28;65.18;100784.56;5036348;28;70108;-36
2021/09/19 05:09:55;;;;;;;8.05;7.30;;;;;;;31.32;64.92;100796.63;5048392;28;64868;-32
2021/09/19 05:12:27;;;;;;;11.23;7.57;;;;;;;31.33;65.17;100785.53;5037021;28;70068;-33
2021/09/19 05:14:59;;;;;;;7.88;6.70;;;;;;;31.37;65.27;100772.38;5036784;28;65348;-36
2021/09/19 05:17:30;;;;;;;19.98;6.63;;;;;;;31.37;65.10;100770.53;5030886;28;69420;-33
2021/09/19 05:20:04;;;;;;;7.93;5.85;;;;;;;30.79;65.29;100667.13;5032471;28;66058;-32
2021/09/19 05:22:35;;;;;;;7.35;6.72;;;;;;;31.41;65.66;100751.91;5036306;28;70048;-32
2021/09/19 05:25:08;;;;;;;6.45;5.82;;;;;;;31.52;64.89;100747.63;5031449;28;65541;-31
2021/09/19 05:27:40;;;;;;;;;;;;;;;31.35;63.53;100737.34;5035105;28;70613;-33
2021/09/19 05:30:12;;;;;;;7.05;5.68;;;;;;;31.40;62.01;100736.72;5015602;28;66402;-32
2021/09/19 05:32:44;;;;;;;10.82;5.20;;;;;;;31.40;61.04;100734.00;5050164;27;69647;-32
2021/09/19 05:35:20;;;;;;;20.08;5.65;;;;;;;31.33;59.42;100725.91;5066784;28;65341;-33
2021/09/19 05:37:52;;;;;;;18.33;5.50;;;;;;;31.27;58.83;100717.88;5081769;27;69843;-33
2021/09/19 05:40:23;;;;;;;29.05;5.50;;;;;;;31.26;58.63;100718.91;5067009;27;66281;-33
2021/09/19 05:42:55;;;;;;;8.23;5.43;;;;;;;31.17;57.22;100708.41;5084717;27;69924;-34
2021/09/19 05:45:26;;;;;;;;;;;;;;;31.15;57.08;100715.09;5066878;27;65963;-33
2021/09/19 05:47:58;;;;;;;17.70;4.97;;;;;;;31.24;57.80;100713.72;5079310;27;69370;-33
2021/09/19 05:50:29;;;;;;;;;;;;;;;31.15;57.62;100702.38;5083629;27;65858;-33
2021/09/19 05:53:01;;;;;;;26.33;5.43;;;;;;;31.22;57.04;100704.16;5079224;27;69952;-33
2021/09/19 05:55:33;;;;;;;23.80;4.95;;;;;;;31.19;56.32;100697.31;5080795;27;66326;-33
2021/09/19 05:58:05;;;;;;;18.52;5.15;;;;;;;31.19;55.21;100693.78;5079630;27;69162;-33
2021/09/19 06:00:37;;;;;;;9.75;4.50;;;;;;;31.14;54.21;100675.47;5048813;27;65641;-33
2021/09/19 06:03:14;;;;;;;13.55;4.63;;;;;;;31.09;53.67;100680.75;5083727;27;70283;-33
2021/09/19 06:05:45;;;;;;;4.35;3.92;;;;;;;31.10;52.79;100658.88;5046293;27;65376;-33
2021/09/19 06:08:17;;;;;;;8.73;4.07;;;;;;;30.90;52.76;100636.63;5079994;27;70169;-33
2021/09/19 06:10:49;;;;;;;6.68;3.83;;;;;;;31.11;51.99;100659.69;5081330;27;66120;-35
2021/09/19 06:13:22;;;;;;;3.63;3.35;;;;;;;31.10;51.58;100653.44;5064417;27;69687;-33
2021/09/19 06:15:54;;;;;;;8.05;3.88;;;;;;;31.06;50.89;100641.38;5080305;27;66239;-33
2021/09/19 06:18:28;;;;;;;4.40;4.00;;;;;;;30.91;49.81;100612.00;5063860;28;69922;-34
2021/09/19 06:21:04;;;;;;;4.07;3.65;;;;;;;31.12;50.10;100645.94;5050185;27;66325;-34
2021/09/19 06:23:36;;;;;;;;;;;;;;;31.08;50.21;100641.19;5083342;27;70061;-38
2021/09/19 06:26:10;;;;;;;4.88;3.35;;;;;;;31.11;49.43;100638.84;5083792;27;67236;-32
2021/09/19 06:28:45;;;;;;;4.60;3.40;;;;;;;31.09;48.62;100635.53;5078082;27;70073;-33
2021/09/19 06:31:16;;;;;;;4.13;3.53;;;;;;;31.13;48.87;100636.72;5058961;27;65369;-31
2021/09/19 06:33:48;;;;;;;9.43;3.53;;;;;;;31.06;48.02;100624.31;5018664;27;70274;-32
2021/09/19 06:36:20;;;;;;;;;;;;;;;31.12;48.86;100623.41;5060317;27;65917;-32
2021/09/19 06:38:51;;;;;;;3.53;3.22;;;;;;;31.08;47.20;100606.78;5067506;27;70911;-33
2021/09/19 06:41:23;;;;;;;3.15;2.95;;;;;;;31.10;47.13;100623.66;5079788;27;65347;-32
2021/09/19 06:43:55;;;;;;;3.33;3.15;;;;;;;31.08;46.99;100614.91;5067269;27;69236;-33
2021/09/19 06:46:31;;;;;;;5.82;3.17;;;;;;;31.08;47.09;100606.78;5070625;27;66516;-34
2021/09/19 06:49:03;;;;;;;3.45;3.15;;;;;;;31.10;46.25;100604.69;5079242;27;69720;-33
2021/09/19 06:51:36;;;;;;;2.83;2.63;;;;;;;31.12;46.32;100605.28;5072846;27;66119;-33
2021/09/19 06:54:09;;;;;;;3.00;2.80;;;;;;;31.14;45.95;100597.72;5077030;27;70047;-33
2021/09/19 06:56:41;;;;;;;3.67;3.22;;;;;;;31.11;45.83;100589.25;5068481;27;66242;-33
2021/09/19 06:59:13;;;;;;;3.20;3.00;;;;;;;31.09;45.68;100591.34;5059014;27;70338;-33
2021/09/19 07:01:46;;;;;;;4.97;2.70;;;;;;;31.11;44.72;100584.66;5080441;27;65737;-32
2021/09/19 07:04:18;;;;;;;6.38;3.17;;;;;;;31.10;45.82;100576.75;5084163;27;69929;-34
2021/09/19 07:06:50;;;;;;;8.88;3.08;;;;;;;30.86;45.12;100538.72;5075207;27;65485;-34
2021/09/19 07:09:21;;;;;;;;;;;;;;;31.17;45.78;100572.91;5076642;27;70688;-33
2021/09/19 07:11:53;;;;;;;2.95;2.75;;;;;;;31.16;45.03;100565.00;5045630;28;66437;-33
2021/09/19 07:14:25;;;;;;;3.92;2.80;;;;;;;31.16;45.07;100549.56;5064737;27;69269;-33
2021/09/19 07:16:57;;;;;;;6.10;3.33;;;;;;;31.14;44.10;100551.66;5063711;27;67421;-33
2021/09/19 07:19:29;;;;;;;3.35;3.13;;;;;;;31.12;43.95;100544.84;5068987;28;70217;-34
2021/09/19 07:22:01;;;;;;;5.53;2.90;;;;;;;31.15;43.46;100547.94;5059280;27;65792;-33
2021/09/19 07:24:33;;;;;;;4.25;2.85;;;;;;;31.08;43.31;100536.34;5078621;27;69881;-34
2021/09/19 07:27:04;;;;;;;;;;;;;;;31.06;43.34;100549.28;5033847;27;67332;-33
2021/09/19 07:29:36;;;;;;;2.47;2.28;;;;;;;31.13;43.28;100539.19;5049627;27;70623;-33
2021/09/19 07:32:09;;;;;;;2.80;2.70;;;;;;;31.14;42.51;100540.84;5083061;27;65530;-32
2021/09/19 07:34:41;;;;;;;2.60;2.40;;;;;;;31.13;42.84;100527.53;5071953;27;70135;-32
2021/09/19 07:37:14;;;;;;;3.05;2.72;;;;;;;30.83;42.47;100474.19;5060676;27;65335;-33
2021/09/19 07:39:46;;;;;;;3.50;2.50;;;;;;;31.16;42.72;100524.38;5058624;27;69277;-33
2021/09/19 07:42:17;;;;;;;;;;;;;;;31.21;43.37;100523.69;5086067;27;65862;-33
2021/09/19 07:44:50;;;;;;;2.65;2.47;;;;;;;31.11;42.87;100500.66;5081600;27;70012;-33
2021/09/19 07:47:25;;;;;;;2.55;2.45;;;;;;;31.21;43.11;100508.25;5079912;27;65332;-33
2021/09/19 07:50:01;;;;;;;3.20;2.50;;;;;;;31.24;43.12;100517.78;5081387;27;69455;-32
2021/09/19 07:52:33;;;;;;;2.20;2.10;;;;;;;31.11;42.53;100508.78;5039534;27;67229;-33
2021/09/19 07:55:07;;;;;;;2.60;2.50;;;;;;;31.25;42.23;100511.31;5065606;27;70307;-33
2021/09/19 07:57:39;;;;;;;3.65;2.63;;;;;;;31.13;42.69;100495.84;5081994;27;65909;-36
2021/09/19 08:00:12;;;;;;;10.15;2.38;;;;;;;31.14;42.92;100502.91;5065615;27;69671;-33
2021/09/19 08:02:44;;;;;;;2.75;2.25;;;;;;;31.16;42.97;100500.78;5081337;27;66526;-32
2021/09/19 08:05:18;;;;;;;9.23;2.38;;;;;;;31.19;42.83;100512.25;5067471;27;69535;-33
2021/09/19 08:07:54;;;;;;;4.30;1.95;;;;;;;31.15;42.42;100504.56;5065439;27;66987;-33
2021/09/19 08:10:31;;;;;;;5.47;2.00;;;;;;;31.23;42.87;100518.84;5046330;27;70029;-33
2021/09/19 08:13:27;;;;;;;9.35;2.20;;;;;;;31.22;42.54;100514.47;5078426;27;66219;-33
2021/09/19 08:16:02;;;;;;;27.95;2.90;;;;;;;31.22;42.98;100515.31;5033970;27;69084;-33
2021/09/19 08:18:54;;;;;;;9.45;2.63;;;;;;;31.32;48.10;100509.34;5076687;27;65227;-33
2021/09/19 08:21:27;;;;;;;10.13;3.03;;;;;;;31.45;50.97;100503.72;5078199;27;70518;-33
2021/09/19 08:23:59;;;;;;;10.50;3.60;;;;;;;31.52;52.73;100501.72;5086561;27;65959;-34
2021/09/19 08:26:31;;;;;;;9.40;3.67;;;;;;;31.63;54.80;100508.22;5048225;28;70342;-33
2021/09/19 08:29:06;;;;;;;4.38;2.83;;;;;;;31.72;55.51;100514.13;5056524;28;66699;-34
2021/09/19 08:31:39;;;;;;;4.88;3.90;;;;;;;31.77;56.87;100506.13;5044873;27;70366;-34
2021/09/19 08:34:11;;;;;;;15.70;4.47;;;;;;;31.86;57.30;100512.84;5065170;27;65971;-34
2021/09/19 08:36:42;;;;;;;4.63;3.92;;;;;;;31.91;58.59;100515.69;5071566;27;69863;-33
2021/09/19 08:39:14;;;;;;;6.85;4.55;;;;;;;31.94;58.84;100512.50;5081464;27;66758;-36
2021/09/19 08:41:49;;;;;;;14.25;4.20;;;;;;;31.98;59.38;100502.84;5078182;27;69112;-33
2021/09/19 08:44:21;;;;;;;6.35;4.15;;;;;;;31.79;60.14;100483.13;5089403;27;66234;-32
2021/09/19 08:46:52;;;;;;;4.10;3.60;;;;;;;31.94;59.64;100501.66;5065672;27;69079;-32
2021/09/19 08:49:24;;;;;;;8.27;3.70;;;;;;;31.95;60.19;100497.88;5081150;27;65975;-34
2021/09/19 08:51:55;;;;;;;4.25;3.95;;;;;;;32.02;59.88;100501.31;5056465;27;70042;-33
2021/09/19 08:54:27;;;;;;;7.63;4.50;;;;;;;31.99;60.04;100498.25;5085601;27;66198;-33
2021/09/19 08:56:58;;;;;;;10.38;3.58;;;;;;;32.03;60.86;100511.09;5086301;27;70070;-34
2021/09/19 08:59:50;;;;;;;17.63;4.13;;;;;;;32.03;61.38;100504.84;5072319;28;65368;-34
2021/09/19 09:02:22;;;;;;;12.23;4.50;;;;;;;32.08;61.62;100517.69;5081212;27;70174;-34
2021/09/19 09:04:58;;;;;;;23.50;4.70;;;;;;;32.08;61.43;100523.13;5065382;27;66141;-34
2021/09/19 09:07:31;;;;;;;19.65;4.30;;;;;;;32.10;62.30;100521.00;5065092;27;69722;-34
2021/09/19 09:10:03;;;;;;;18.15;4.50;;;;;;;32.10;62.00;100519.13;5081179;27;66003;-34
2021/09/19 09:12:35;;;;;;;12.80;4.40;;;;;;;32.13;61.98;100515.09;5065364;27;69969;-34
2021/09/19 09:15:08;;;;;;;6.55;4.93;;;;;;;32.15;62.08;100510.25;5057760;28;65230;-34
2021/09/19 09:17:40;;;;;;;7.68;4.32;;;;;;;32.16;61.94;100510.03;5077156;27;69126;-34
2021/09/19 09:20:14;;;;;;;10.68;4.15;;;;;;;32.22;62.63;100519.91;5076513;27;65454;-33
2021/09/19 09:22:46;;;;;;;4.45;4.13;;;;;;;32.26;62.30;100525.69;5083587;27;70460;-34
2021/09/19 09:25:17;;;;;;;7.00;4.22;;;;;;;32.24;63.17;100523.22;5054237;28;66548;-33
2021/09/19 09:27:50;;;;;;;1999.90;999.90;;;;;;;31.97;63.10;100482.19;5077092;27;69668;-33
2021/09/19 09:30:25;;;;;;;1999.90;999.90;;;;;;;32.18;63.54;100517.91;5062910;27;65285;-34
2021/09/19 09:33:05;;;;;;;1999.90;999.90;;;;;;;31.76;64.86;100474.63;5066778;27;69827;-34
2021/09/19 09:35:40;;;;;;;1999.90;999.90;;;;;;;31.94;63.78;100496.25;5070505;27;65125;-33
2021/09/19 09:38:23;;;;;;;1999.90;999.90;;;;;;;32.12;64.06;100518.88;5054017;27;69640;-33
2021/09/19 09:40:58;;;;;;;1999.90;999.90;;;;;;;31.87;64.26;100483.81;5079642;27;66454;-33
2021/09/19 09:43:30;;;;;;;1999.90;999.90;;;;;;;32.19;63.32;100527.72;5056860;27;69087;-34
2021/09/19 09:46:11;;;;;;;1999.90;999.90;;;;;;;32.02;63.13;100517.59;5050830;27;66257;-34
2021/09/19 09:48:42;;;;;;;1999.90;999.90;;;;;;;32.09;63.28;100535.63;5074510;27;70000;-33
2021/09/19 09:51:23;;;;;;;1890.80;999.90;;;;;;;31.86;62.83;100509.31;5066963;28;66025;-34
2021/09/19 09:54:00;;;;;;;699.85;628.33;;;;;;;31.91;62.37;100540.13;5062385;27;71075;-34
2021/09/19 09:56:32;;;;;;;216.02;171.52;;;;;;;31.98;62.27;100553.56;5060795;27;66201;-33
2021/09/19 09:59:05;;;;;;;21.92;17.77;;;;;;;31.95;61.81;100562.16;5057658;28;69827;-32
2021/09/19 10:01:38;;;;;;;15.43;12.75;;;;;;;31.96;62.22;100561.13;5051258;27;65980;-33
2021/09/19 10:04:13;;;;;;;13.07;12.07;;;;;;;31.89;62.23;100569.31;5073428;27;70754;-34
2021/09/19 10:06:45;;;;;;;9.27;8.52;;;;;;;31.91;62.61;100566.38;5076378;27;65991;-33
2021/09/19 10:09:16;;;;;;;6.95;6.30;;;;;;;31.90;61.79;100575.56;5080384;27;70093;-34
2021/09/19 10:11:48;;;;;;;6.88;6.38;;;;;;;31.76;61.84;100570.38;5076218;27;65517;-33
2021/09/19 10:14:20;;;;;;;6.75;6.18;;;;;;;31.83;62.41;100587.34;5069017;27;69895;-33
2021/09/19 10:16:52;;;;;;;5.68;5.05;;;;;;;31.72;62.25;100581.94;5034512;27;65102;-33
2021/09/19 10:19:24;;;;;;;9.50;5.68;;;;;;;31.82;62.25;100603.88;5077045;27;69588;-39
2021/09/19 10:21:57;;;;;;;;;;;;;;;31.88;62.40;100611.09;5071810;27;66084;-34
2021/09/19 10:24:37;;;;;;;6.35;5.90;;;;;;;31.54;62.64;100558.44;5047650;28;70369;-34
2021/09/19 10:27:23;;;;;;;7.95;5.40;;;;;;;31.88;62.94;100623.81;5073100;27;65485;-35
2021/09/19 10:30:07;;;;;;;6.13;5.32;;;;;;;31.52;63.41;100574.09;5068693;27;71015;-34
2021/09/19 10:32:42;;;;;;;6.15;4.97;;;;;;;31.86;62.78;100624.03;5062751;27;65902;-36
2021/09/19 10:35:17;;;;;;;5.25;4.90;;;;;;;31.87;63.27;100630.28;5068374;27;70622;-33
2021/09/19 10:37:53;;;;;;;5.05;4.75;;;;;;;31.65;63.23;100594.75;5054020;27;66256;-34
2021/09/19 10:40:40;;;;;;;5.97;5.47;;;;;;;31.86;63.91;100653.88;5068879;27;69190;-33
2021/09/19 10:43:22;;;;;;;6.15;5.53;;;;;;;31.79;63.50;100647.75;5069530;27;66091;-35
2021/09/19 10:45:53;;;;;;;5.60;5.20;;;;;;;31.88;63.80;100659.91;5071543;27;70043;-34
2021/09/19 10:48:34;;;;;;;5.22;4.82;;;;;;;31.85;63.73;100663.09;5071528;27;65628;-34
2021/09/19 10:51:09;;;;;;;5.30;5.00;;;;;;;31.82;63.82;100666.25;5072279;27;70011;-34
2021/09/19 10:53:49;;;;;;;5.57;5.22;;;;;;;31.84;63.65;100683.13;5041226;27;66695;-33
2021/09/19 10:56:24;;;;;;;5.75;5.35;;;;;;;31.57;63.64;100642.84;5051479;27;70199;-33
2021/09/19 10:58:56;;;;;;;5.35;5.05;;;;;;;31.76;64.12;100695.13;5074824;27;65520;-33
2021/09/19 11:01:35;;;;;;;8.20;4.53;;;;;;;31.78;63.61;100687.56;5078057;27;70257;-33
2021/09/19 11:04:12;;;;;;;4.90;4.60;;;;;;;31.67;64.00;100679.41;5075984;27;66254;-33
2021/09/19 11:06:44;;;;;;;4.90;4.60;;;;;;;31.71;64.20;100697.72;5073685;27;69595;-33
2021/09/19 11:09:27;;;;;;;5.20;4.90;;;;;;;31.53;64.17;100674.16;5076785;27;66776;-33
2021/09/19 11:12:10;;;;;;;6.03;4.68;;;;;;;31.32;64.14;100642.13;5059741;27;68151;-33
2021/09/19 11:15:01;;;;;;;5.28;4.97;;;;;;;30.86;64.09;100575.81;5079986;27;66858;-34
2021/09/19 11:17:42;;;;;;;5.40;4.90;;;;;;;31.60;64.46;100691.19;5068332;27;70874;-35
2021/09/19 11:20:14;;;;;;;5.30;5.00;;;;;;;31.65;64.15;100695.06;5076649;27;65903;-34
2021/09/19 11:22:50;;;;;;;7.13;4.88;;;;;;;31.56;64.32;100684.56;5054754;27;70497;-35
2021/09/19 11:25:23;;;;;;;5.20;4.90;;;;;;;31.31;64.60;100651.31;5061961;27;65305;-34
2021/09/19 11:27:54;;;;;;;5.10;4.75;;;;;;;31.50;64.74;100685.47;5065161;27;70019;-34
2021/09/19 11:30:30;;;;;;;5.10;4.80;;;;;;;31.47;64.39;100695.97;5066856;27;66136;-34
2021/09/19 11:33:11;;;;;;;5.13;4.75;;;;;;;31.08;64.78;100655.53;5060003;27;70310;-34
2021/09/19 11:35:42;;;;;;;5.28;4.88;;;;;;;31.49;65.11;100705.53;5078721;27;66586;-34
2021/09/19 11:38:18;;;;;;;4.60;4.20;;;;;;;31.44;64.79;100707.25;5063785;28;69314;-39
2021/09/19 11:41:01;;;;;;;5.68;5.28;;;;;;;31.38;65.31;100707.13;5055140;27;67144;-34
2021/09/19 11:43:37;;;;;;;5.00;4.70;;;;;;;31.44;65.09;100705.38;5078259;27;69973;-36
2021/09/19 11:46:12;;;;;;;4.95;4.65;;;;;;;31.10;65.26;100667.00;5068354;28;64912;-34
2021/09/19 11:48:44;;;;;;;5.30;4.90;;;;;;;31.40;65.45;100717.75;5076627;27;70343;-34
2021/09/19 11:51:18;;;;;;;5.43;5.13;;;;;;;31.07;65.32;100670.16;5063989;27;66682;-34
2021/09/19 11:53:53;;;;;;;6.00;5.18;;;;;;;31.35;65.58;100712.13;5075244;27;68970;-34
2021/09/19 11:56:40;;;;;;;5.70;5.30;;;;;;;31.33;66.57;100711.53;5073784;27;65753;-34
2021/09/19 11:59:25;;;;;;;9.18;5.80;;;;;;;31.37;65.98;100713.59;5060947;27;70077;-35